createdAt,value
2023-02-26T00:01:34.886Z,101953.72
2023-02-26T00:06:31.025Z,101952.53
2023-02-26T00:11:25.257Z,101926.03
2023-02-26T00:16:37.898Z,101970.34
2023-02-26T00:21:34.185Z,101978.84
2023-02-26T00:26:30.353Z,101966.97
2023-02-26T00:31:34.189Z,101989.22
2023-02-26T00:36:27.724Z,101978.56
2023-02-26T00:41:21.128Z,101995.81
2023-02-26T00:46:31.720Z,102003.38
2023-02-26T00:51:32.180Z,102014.53
2023-02-26T00:56:31.299Z,101972.47
2023-02-26T01:01:29.231Z,102004.03
2023-02-26T01:06:25.249Z,102031.91
2023-02-26T01:11:17.399Z,102026.94
2023-02-26T01:16:16.169Z,102034.81
2023-02-26T01:21:19.086Z,102041.31
2023-02-26T01:26:20.534Z,102048.41
2023-02-26T01:31:34.865Z,102058.88
2023-02-26T01:36:37.110Z,102059.16
2023-02-26T01:41:46.717Z,102073.19
2023-02-26T01:46:43.653Z,102081.63
2023-02-26T01:51:56.983Z,102078.63
2023-02-26T01:56:51.516Z,102093.16
2023-02-26T02:01:45.049Z,102089.22
2023-02-26T02:06:42.173Z,102087.72
2023-02-26T02:11:41.768Z,102108.16
2023-02-26T02:16:47.588Z,102086.91
2023-02-26T02:22:18.563Z,102097.28
2023-02-26T02:27:35.110Z,102100.47
2023-02-26T02:32:34.057Z,102085.56
2023-02-26T02:37:37.834Z,102121.44
2023-02-26T02:42:33.874Z,102128.41
2023-02-26T02:47:31.361Z,102135.38
2023-02-26T02:52:35.496Z,102128.50
2023-02-26T02:57:32.782Z,102133.78
2023-02-26T03:02:32.216Z,102137.78
2023-02-26T03:07:26.430Z,102138.28
2023-02-26T03:12:29.848Z,102144.28
2023-02-26T03:17:28.095Z,102152.31
2023-02-26T03:22:26.556Z,102165.78
2023-02-26T03:27:32.669Z,102157.75
2023-02-26T03:32:28.276Z,102152.81
2023-02-26T03:37:22.137Z,102166.50
2023-02-26T03:42:20.416Z,102176.03
2023-02-26T03:47:30.129Z,102178.47
2023-02-26T03:52:27.071Z,102183.44
2023-02-26T03:57:49.778Z,102186.06
2023-02-26T04:03:05.285Z,102202.13
2023-02-26T04:07:55.989Z,102200.06
2023-02-26T04:12:51.796Z,102209.88
2023-02-26T04:17:43.600Z,102210.22
2023-02-26T04:22:36.888Z,102213.66
2023-02-26T04:27:30.068Z,102229.56
2023-02-26T04:32:25.463Z,102232.00
2023-02-26T04:37:34.688Z,102235.66
2023-02-26T04:42:47.350Z,102246.53
2023-02-26T04:47:40.376Z,102248.59
2023-02-26T04:52:31.089Z,102260.00
2023-02-26T04:57:24.031Z,102260.06
2023-02-26T05:02:18.584Z,102267.03
2023-02-26T05:07:12.326Z,102275.25
2023-02-26T05:12:05.686Z,102276.69
2023-02-26T05:17:02.779Z,102279.38
2023-02-26T05:21:56.702Z,102272.88
2023-02-26T05:26:57.741Z,102277.88
2023-02-26T05:31:48.573Z,102276.38
2023-02-26T05:36:39.115Z,102286.00
2023-02-26T05:41:32.989Z,102303.22
2023-02-26T05:46:29.765Z,102319.91
2023-02-26T05:51:20.023Z,102319.91
2023-02-26T05:56:13.798Z,102328.53
2023-02-26T06:01:07.758Z,102343.53
2023-02-26T06:05:59.902Z,102350.38
2023-02-26T06:10:53.500Z,102340.22
2023-02-26T06:15:47.154Z,102346.59
2023-02-26T06:20:42.820Z,102349.81
2023-02-26T06:25:34.142Z,102357.19
2023-02-26T06:30:25.824Z,102362.59
2023-02-26T06:35:15.645Z,102359.34
2023-02-26T06:40:14.087Z,102380.13
2023-02-26T06:45:07.297Z,102369.66
2023-02-26T06:50:03.602Z,102387.81
2023-02-26T06:55:04.241Z,102399.41
2023-02-26T07:00:04.763Z,102410.47
2023-02-26T07:04:55.101Z,102423.72
2023-02-26T07:09:46.142Z,102440.69
2023-02-26T07:14:38.313Z,102441.34
2023-02-26T07:19:40.517Z,102440.97
2023-02-26T07:24:33.064Z,102463.91
2023-02-26T07:29:26.300Z,102459.03
2023-02-26T07:34:18.056Z,102469.28
2023-02-26T07:39:15.093Z,102463.19
2023-02-26T07:44:06.584Z,102480.53
2023-02-26T07:48:57.824Z,102484.50
2023-02-26T07:53:49.864Z,102482.81
2023-02-26T07:58:42.868Z,102490.56
2023-02-26T08:03:34.493Z,102495.69
2023-02-26T08:08:37.161Z,102512.59
2023-02-26T08:13:27.770Z,102517.53
2023-02-26T08:18:38.968Z,102518.34
2023-02-26T08:23:37.408Z,102540.28
2023-02-26T08:28:27.810Z,102542.16
2023-02-26T08:33:18.228Z,102545.13
2023-02-26T08:38:10.995Z,102556.19
2023-02-26T08:43:07.741Z,102564.78
2023-02-26T08:48:01.346Z,102568.22
2023-02-26T08:52:51.123Z,102576.97
2023-02-26T08:57:52.514Z,102586.25
2023-02-26T09:02:53.222Z,102584.66
2023-02-26T09:07:52.036Z,102595.16
2023-02-26T09:12:44.910Z,102600.94
2023-02-26T09:17:42.496Z,102600.56
2023-02-26T09:22:47.485Z,102605.25
2023-02-26T09:27:44.015Z,102606.47
2023-02-26T09:32:40.709Z,102616.44
2023-02-26T09:37:47.721Z,102571.59
2023-02-26T09:42:51.404Z,102631.53
2023-02-26T09:47:45.860Z,102644.84
2023-02-26T09:52:45.217Z,102646.31
2023-02-26T09:57:38.973Z,102646.84
2023-02-26T10:02:43.116Z,102654.09
2023-02-26T10:07:39.782Z,102664.22
2023-02-26T10:12:37.849Z,102665.56
2023-02-26T10:17:36.491Z,102668.63
2023-02-26T10:22:31.690Z,102680.91
2023-02-26T10:27:24.124Z,102677.19
2023-02-26T10:32:26.334Z,102686.09
2023-02-26T10:37:22.505Z,102674.28
2023-02-26T10:42:16.550Z,102683.03
2023-02-26T10:47:17.181Z,102688.09
2023-02-26T10:52:18.972Z,102690.28
2023-02-26T10:57:17.783Z,102684.53
2023-02-26T11:02:21.816Z,102696.44
2023-02-26T11:07:20.055Z,102690.94
2023-02-26T11:12:30.593Z,102698.28
2023-02-26T11:17:23.316Z,102703.19
2023-02-26T11:22:20.341Z,102696.75
2023-02-26T11:27:17.059Z,102689.28
2023-02-26T11:32:27.051Z,102683.19
2023-02-26T11:37:32.640Z,102676.44
2023-02-26T11:42:24.021Z,102677.44
2023-02-26T11:47:23.374Z,102663.28
2023-02-26T11:52:26.564Z,102674.63
2023-02-26T11:57:20.200Z,102666.59
2023-02-26T12:02:19.891Z,102660.53
2023-02-26T12:07:18.997Z,102664.00
2023-02-26T12:12:18.765Z,102667.34
2023-02-26T12:17:15.776Z,102665.34
2023-02-26T12:22:14.686Z,102663.38
2023-02-26T12:27:09.580Z,102664.97
2023-02-26T12:32:16.443Z,102669.00
2023-02-26T12:37:31.847Z,102663.13
2023-02-26T12:42:32.744Z,102675.34
2023-02-26T12:47:33.357Z,102666.38
2023-02-26T12:52:39.660Z,102661.91
2023-02-26T12:57:55.286Z,102667.47
2023-02-26T13:03:13.495Z,102678.63
2023-02-26T13:08:15.158Z,102675.72
2023-02-26T13:13:25.946Z,102659.88
2023-02-26T13:18:21.074Z,102666.59
2023-02-26T13:23:20.221Z,102667.47
2023-02-26T13:28:28.620Z,102670.09
2023-02-26T13:33:24.192Z,102660.03
2023-02-26T13:38:25.208Z,102665.06
2023-02-26T13:43:29.973Z,102673.78
2023-02-26T13:48:30.545Z,102661.13
2023-02-26T13:53:40.713Z,102659.06
2023-02-26T14:03:49.680Z,102682.72
2023-02-26T14:09:01.289Z,102663.88
2023-02-26T14:14:13.924Z,102655.38
2023-02-26T14:19:16.269Z,102658.66
2023-02-26T14:24:11.642Z,102663.59
2023-02-26T14:29:33.469Z,102656.53
2023-02-26T14:34:43.774Z,102656.22
2023-02-26T14:39:41.844Z,102658.78
2023-02-26T14:44:43.005Z,102663.25
2023-02-26T14:49:41.488Z,102654.00
2023-02-26T14:54:53.602Z,102649.25
2023-02-26T14:59:59.271Z,102661.06
2023-02-26T15:05:11.470Z,102660.91
2023-02-26T15:10:19.917Z,102652.94
2023-02-26T15:15:37.128Z,102654.50
2023-02-26T15:20:35.649Z,102659.66
2023-02-26T15:25:41.862Z,102653.56
2023-02-26T15:36:03.576Z,102658.84
2023-02-26T15:41:01.335Z,102663.78
2023-02-26T15:46:11.619Z,102666.81
2023-02-26T15:51:13.160Z,102663.47
2023-02-26T15:56:11.063Z,102676.88
2023-02-26T16:01:03.521Z,102688.34
2023-02-26T16:05:57.699Z,102688.84
2023-02-26T16:10:47.449Z,102699.97
2023-02-26T16:15:51.646Z,102691.38
2023-02-26T16:20:43.887Z,102699.53
2023-02-26T16:25:51.286Z,102699.06
2023-02-26T16:31:20.644Z,102705.00
2023-02-26T16:36:27.302Z,102709.16
2023-02-26T16:41:32.152Z,102718.91
2023-02-26T16:46:25.136Z,102721.31
2023-02-26T16:51:16.364Z,102719.19
2023-02-26T16:56:17.951Z,102728.41
2023-02-26T17:01:23.069Z,102731.50
2023-02-26T17:06:24.345Z,102740.88
2023-02-26T17:11:25.082Z,102742.72
2023-02-26T17:16:16.541Z,102751.84
2023-02-26T17:21:11.324Z,102757.03
2023-02-26T17:26:06.810Z,102755.00
2023-02-26T17:31:03.293Z,102764.50
2023-02-26T17:35:57.055Z,102775.47
2023-02-26T17:40:49.907Z,102782.59
2023-02-26T17:45:49.261Z,102787.16
2023-02-26T17:50:48.382Z,102794.06
2023-02-26T17:55:39.887Z,102802.34
2023-02-26T18:00:30.111Z,102806.63
2023-02-26T18:05:25.641Z,102814.63
2023-02-26T18:10:24.863Z,102814.34
2023-02-26T18:15:15.555Z,102813.78
2023-02-26T18:20:13.314Z,102812.63
2023-02-26T18:25:03.481Z,102804.53
2023-02-26T18:29:59.441Z,102815.75
2023-02-26T18:34:52.316Z,102815.84
2023-02-26T18:39:45.214Z,102823.22
2023-02-26T18:44:35.562Z,102823.88
2023-02-26T18:49:40.222Z,102834.44
2023-02-26T18:54:36.833Z,102833.50
2023-02-26T18:59:30.752Z,102838.34
2023-02-26T19:04:20.771Z,102850.13
2023-02-26T19:09:14.717Z,102848.59
2023-02-26T19:14:10.379Z,102847.31
2023-02-26T19:19:06.847Z,102849.47
2023-02-26T19:23:57.267Z,102867.06
2023-02-26T19:28:59.424Z,102863.13
2023-02-26T19:33:50.349Z,102861.72
2023-02-26T19:38:48.042Z,102870.09
2023-02-26T19:43:37.780Z,102873.56
2023-02-26T19:48:32.815Z,102870.53
2023-02-26T19:53:23.093Z,102882.28
2023-02-26T19:58:16.304Z,102884.25
2023-02-26T20:03:17.099Z,102880.53
2023-02-26T20:08:14.579Z,102883.75
2023-02-26T20:13:14.002Z,102883.75
2023-02-26T20:18:06.176Z,102883.75
2023-02-26T20:23:14.747Z,102879.41
2023-02-26T20:28:15.255Z,102878.53
2023-02-26T20:33:06.393Z,102886.81
2023-02-26T20:37:56.581Z,102886.50
2023-02-26T20:42:47.448Z,102900.00
2023-02-26T20:47:40.248Z,102906.91
2023-02-26T20:52:30.629Z,102899.09
2023-02-26T20:57:23.454Z,102911.91
2023-02-26T21:02:16.354Z,102910.91
2023-02-26T21:07:18.155Z,102907.16
2023-02-26T21:12:12.304Z,102920.50
2023-02-26T21:17:02.351Z,102917.34
2023-02-26T21:21:57.618Z,102921.63
2023-02-26T21:26:49.927Z,102925.81
2023-02-26T21:31:40.659Z,102926.75
2023-02-26T21:36:31.447Z,102926.25
2023-02-26T21:41:22.096Z,102926.50
2023-02-26T21:46:16.991Z,102937.25
2023-02-26T21:51:16.081Z,102942.03
2023-02-26T21:56:14.307Z,102940.97
2023-02-26T22:01:15.004Z,102946.09
2023-02-26T22:06:09.346Z,102940.00
2023-02-26T22:11:06.176Z,102931.50
2023-02-26T22:16:04.956Z,102937.44
2023-02-26T22:21:01.279Z,102938.03
2023-02-26T22:25:56.746Z,102928.22
2023-02-26T22:30:50.657Z,102932.13
2023-02-26T22:35:41.852Z,102938.41
2023-02-26T22:40:32.339Z,102953.81
2023-02-26T22:45:35.384Z,102950.38
2023-02-26T22:50:29.755Z,102947.78
2023-02-26T22:55:23.099Z,102947.88
2023-02-26T23:00:15.298Z,102948.53
2023-02-26T23:05:10.609Z,102957.44
2023-02-26T23:10:01.373Z,102956.09
2023-02-26T23:14:53.626Z,102961.44
2023-02-26T23:19:46.048Z,102955.34
2023-02-26T23:24:40.838Z,102963.53
2023-02-26T23:29:33.215Z,102974.72
2023-02-26T23:34:26.496Z,102967.00
2023-02-26T23:39:19.418Z,102966.75
2023-02-26T23:44:15.659Z,102972.53
2023-02-26T23:49:09.878Z,102966.41
2023-02-26T23:54:00.287Z,102971.75
2023-02-26T23:58:51.212Z,102977.16
